Time;durP1;ratioP1;P1;durP2;ratioP2;P2;SDS_P1;SDS_P2;PMS_P1;PMS_P2;Temp;Humidity;BMP_temperature;BMP_pressure;BME280_temperature;BME280_humidity;BME280_pressure;Samples;Min_cycle;Max_cycle;Signal;HPM_P1;HPM_P2
2021/07/17 00:00:11;;;;;;;;;;;;;;;25.73;43.81;102683.53;4928934;29;19919;-84
2021/07/17 00:02:36;;;;;;;;;;;;;;;25.83;43.78;102690.06;4945901;29;19922;-82
2021/07/17 00:05:05;;;;;;;;;;;;;;;25.59;44.41;102686.53;4928347;29;20005;-84
2021/07/17 00:07:30;;;;;;;;;;;;;;;25.60;44.42;102680.00;4945514;29;20385;-82
2021/07/17 00:09:56;;;;;;;;;;;;;;;25.24;45.71;102688.44;4928601;29;19990;-83
2021/07/17 00:12:21;;;;;;;;;;;;;;;24.91;46.48;102680.91;4928014;29;19958;-85
2021/07/17 00:14:46;;;;;;;;;;;;;;;25.04;46.28;102678.94;4942936;29;19919;-85
2021/07/17 00:17:11;;;;;;;;;;;;;;;25.33;45.80;102678.50;4926139;29;19925;-80
2021/07/17 00:19:37;;;;;;;;;;;;;;;25.12;46.12;102684.75;4925944;29;19926;-81
2021/07/17 00:22:02;;;;;;;;;;;;;;;25.57;44.73;102683.03;4927404;29;20380;-82
2021/07/17 00:24:27;;;;;;;;;;;;;;;25.83;44.49;102684.53;4944862;29;20056;-82
2021/07/17 00:26:52;;;;;;;;;;;;;;;26.15;43.65;102686.50;4944942;29;19923;-86
2021/07/17 00:29:18;;;;;;;;;;;;;;;26.13;43.59;102687.63;4944597;29;19919;-80
2021/07/17 00:31:43;;;;;;;;;;;;;;;26.15;43.62;102697.59;4927543;29;19966;-82
2021/07/17 00:34:08;;;;;;;;;;;;;;;26.10;43.98;102688.75;4927567;29;19919;-83
2021/07/17 00:36:33;;;;;;;;;;;;;;;26.03;44.38;102683.88;4928532;29;20289;-81
2021/07/17 00:38:59;;;;;;;;;;;;;;;26.57;42.67;102687.59;4945117;29;19925;-83
2021/07/17 00:41:24;;;;;;;;;;;;;;;26.11;44.31;102684.97;4944657;29;19918;-82
2021/07/17 00:43:49;;;;;;;;;;;;;;;26.58;42.82;102686.56;4929030;29;19977;-81
2021/07/17 00:46:14;;;;;;;;;;;;;;;26.24;43.81;102682.06;4945563;29;19954;-82
2021/07/17 00:48:39;;;;;;;;;;;;;;;26.57;42.96;102691.22;4945306;29;19918;-83
2021/07/17 00:51:05;;;;;;;;;;;;;;;26.23;43.97;102684.97;4944132;29;19990;-83
2021/07/17 00:53:30;;;;;;;;;;;;;;;26.50;43.01;102690.03;4944113;29;19919;-88
2021/07/17 00:55:56;;;;;;;;;;;;;;;26.34;43.50;102684.91;4943512;29;20411;-81
2021/07/17 00:58:23;;;;;;;;;;;;;;;26.10;44.34;102688.75;4943989;29;19923;-83
2021/07/17 01:00:51;;;;;;;;;;;;;;;26.28;43.76;102689.09;4927140;29;19926;-82
2021/07/17 01:03:16;;;;;;;;;;;;;;;26.17;44.08;102678.91;4946722;29;19922;-82
2021/07/17 01:05:42;;;;;;;;;;;;;;;26.17;44.14;102684.47;4929063;29;20404;-81
2021/07/17 01:08:07;;;;;;;;;;;;;;;26.44;43.21;102685.88;4929306;29;19925;-81
2021/07/17 01:10:32;;;;;;;;;;;;;;;25.74;44.86;102682.53;4944776;29;19926;-80
2021/07/17 01:12:58;;;;;;;;;;;;;;;25.90;44.70;102678.47;4927684;29;19919;-83
2021/07/17 01:15:23;;;;;;;;;;;;;;;26.15;43.84;102686.50;4944797;29;20437;-81
2021/07/17 01:17:48;;;;;;;;;;;;;;;26.26;43.53;102687.47;4928303;29;19930;-83
2021/07/17 01:20:15;;;;;;;;;;;;;;;26.38;43.13;102683.63;4927061;29;19969;-80
2021/07/17 01:22:41;;;;;;;;;;;;;;;26.05;43.98;102679.97;4944279;29;19943;-80
2021/07/17 01:25:11;;;;;;;;;;;;;;;25.99;44.04;102677.72;4944119;29;20365;-87
2021/07/17 01:27:37;;;;;;;;;;;;;;;26.16;43.46;102673.50;4944163;29;19926;-79
2021/07/17 01:30:07;;;;;;;;;;;;;;;25.89;44.12;102676.69;4928094;29;19918;-81
2021/07/17 01:32:32;;;;;;;;;;;;;;;25.99;43.81;102678.56;4946186;29;19970;-81
2021/07/17 01:34:58;;;;;;;;;;;;;;;25.70;44.35;102675.47;4928019;29;19922;-83
2021/07/17 01:37:23;;;;;;;;;;;;;;;25.62;44.64;102676.09;4949462;29;19925;-83
2021/07/17 01:39:48;;;;;;;;;;;;;;;25.59;44.64;102681.91;4929494;29;19925;-82
2021/07/17 01:42:13;;;;;;;;;;;;;;;25.60;44.70;102668.91;4944019;29;20033;-82
2021/07/17 01:44:39;;;;;;;;;;;;;;;25.51;44.87;102672.47;4926345;29;19918;-81
2021/07/17 01:47:05;;;;;;;;;;;;;;;25.51;44.63;102672.47;4926446;29;19919;-82
2021/07/17 01:49:30;;;;;;;;;;;;;;;25.10;45.41;102681.22;4925849;29;19926;-82
2021/07/17 01:51:55;;;;;;;;;;;;;;;25.27;45.26;102679.88;4942424;29;19923;-82
2021/07/17 01:54:21;;;;;;;;;;;;;;;25.11;45.77;102663.59;4942084;29;19953;-81
2021/07/17 01:56:48;;;;;;;;;;;;;;;25.32;44.94;102673.97;4941895;29;19930;-83
2021/07/17 01:59:13;;;;;;;;;;;;;;;25.52;44.44;102671.47;4924588;29;19926;-84
2021/07/17 02:01:38;;;;;;;;;;;;;;;25.28;45.15;102672.41;4941913;29;20292;-82
2021/07/17 02:04:03;;;;;;;;;;;;;;;25.32;44.97;102671.22;4924924;29;19918;-83
2021/07/17 02:06:29;;;;;;;;;;;;;;;25.02;46.01;102667.13;4925518;29;20001;-82
2021/07/17 02:08:55;;;;;;;;;;;;;;;24.93;45.73;102673.41;4941706;29;19941;-82
2021/07/17 02:11:20;;;;;;;;;;;;;;;25.08;45.24;102662.97;4942385;29;19926;-83
2021/07/17 02:13:47;;;;;;;;;;;;;;;25.03;45.56;102666.13;4925163;29;19974;-81
2021/07/17 02:16:12;;;;;;;;;;;;;;;24.70;46.46;102661.38;4924035;29;19926;-82
2021/07/17 02:18:37;;;;;;;;;;;;;;;25.08;45.31;102661.06;4923230;29;20289;-82
2021/07/17 02:21:05;;;;;;;;;;;;;;;24.90;45.88;102668.97;4924149;29;19919;-82
2021/07/17 02:23:34;;;;;;;;;;;;;;;25.20;44.62;102661.06;4924679;29;19919;-84
2021/07/17 02:25:59;;;;;;;;;;;;;;;25.04;44.90;102664.22;4922289;29;19974;-83
2021/07/17 02:28:24;;;;;;;;;;;;;;;24.91;45.83;102675.38;4923175;29;19922;-83
2021/07/17 02:30:50;;;;;;;;;;;;;;;24.84;45.96;102668.59;4924021;29;19981;-81
2021/07/17 02:33:15;;;;;;;;;;;;;;;24.89;45.56;102671.88;4940952;29;19967;-81
2021/07/17 02:35:41;;;;;;;;;;;;;;;24.57;46.52;102673.38;4941043;29;19922;-83
2021/07/17 02:38:06;;;;;;;;;;;;;;;24.41;46.91;102662.66;4924021;29;19955;-81
2021/07/17 02:40:31;;;;;;;;;;;;;;;24.19;47.62;102670.84;4922793;29;20340;-82
2021/07/17 02:42:57;;;;;;;;;;;;;;;24.63;46.14;102668.41;4923438;29;20235;-83
2021/07/17 02:45:22;;;;;;;;;;;;;;;24.36;47.21;102670.41;4942801;29;19927;-82
2021/07/17 02:47:47;;;;;;;;;;;;;;;24.57;46.34;102666.97;4942519;29;19954;-83
2021/07/17 02:50:13;;;;;;;;;;;;;;;24.30;47.09;102672.78;4942053;29;19918;-80
2021/07/17 02:52:38;;;;;;;;;;;;;;;24.51;46.43;102673.00;4926455;29;20420;-80
2021/07/17 02:55:04;;;;;;;;;;;;;;;24.40;46.84;102671.94;4927689;29;19929;-86
2021/07/17 02:57:29;;;;;;;;;;;;;;;24.37;46.69;102669.41;4943842;29;19930;-80
2021/07/17 02:59:54;;;;;;;;;;;;;;;24.30;46.95;102668.13;4929113;29;19978;-82
2021/07/17 03:02:20;;;;;;;;;;;;;;;24.47;46.22;102671.47;4945403;29;20300;-81
2021/07/17 03:04:45;;;;;;;;;;;;;;;24.31;46.64;102666.25;4947156;29;20411;-83
2021/07/17 03:07:10;;;;;;;;;;;;;;;24.19;47.05;102668.94;4943804;29;20017;-81
2021/07/17 03:09:35;;;;;;;;;;;;;;;24.05;47.43;102669.09;4927325;29;19927;-84
2021/07/17 03:12:01;;;;;;;;;;;;;;;23.94;47.66;102675.47;4926594;29;20365;-82
2021/07/17 03:14:27;;;;;;;;;;;;;;;23.89;47.87;102678.56;4944164;29;19951;-80
2021/07/17 03:16:52;;;;;;;;;;;;;;;23.94;47.45;102680.13;4927512;29;19918;-81
2021/07/17 03:19:17;;;;;;;;;;;;;;;23.94;47.48;102669.94;4927268;29;19919;-81
2021/07/17 03:21:42;;;;;;;;;;;;;;;23.79;48.12;102671.06;4927877;29;19919;-79
2021/07/17 03:24:08;;;;;;;;;;;;;;;24.01;47.56;102667.59;4929662;29;19950;-81
2021/07/17 03:26:33;;;;;;;;;;;;;;;23.52;48.74;102670.25;4928601;29;19927;-82
2021/07/17 03:28:58;;;;;;;;;;;;;;;24.02;47.13;102670.25;4951841;29;19926;-84
2021/07/17 03:31:30;;;;;;;;;;;;;;;23.91;47.63;102672.06;4949684;29;19919;-82
2021/07/17 03:33:56;;;;;;;;;;;;;;;23.68;48.17;102672.75;4930974;29;19935;-82
2021/07/17 03:36:22;;;;;;;;;;;;;;;23.88;47.31;102670.41;4930627;29;19919;-81
2021/07/17 03:38:47;;;;;;;;;;;;;;;23.77;47.83;102667.53;4930562;29;20005;-81
2021/07/17 03:41:12;;;;;;;;;;;;;;;23.65;48.01;102674.88;4930734;29;20006;-82
2021/07/17 03:43:37;;;;;;;;;;;;;;;23.51;48.19;102673.13;4930247;29;20285;-84
2021/07/17 03:46:03;;;;;;;;;;;;;;;23.69;47.78;102673.66;4947826;29;19923;-85
2021/07/17 03:48:28;;;;;;;;;;;;;;;23.84;47.31;102675.25;4946365;29;20274;-82
2021/07/17 03:50:53;;;;;;;;;;;;;;;23.82;47.80;102680.00;4945007;29;20387;-80
2021/07/17 03:53:18;;;;;;;;;;;;;;;23.96;47.33;102684.53;4928757;29;19919;-82
2021/07/17 03:55:44;;;;;;;;;;;;;;;23.85;47.73;102681.69;4946073;29;19923;-83
2021/07/17 03:58:09;;;;;;;;;;;;;;;23.83;48.15;102683.66;4928342;29;19923;-82
2021/07/17 04:00:34;;;;;;;;;;;;;;;23.88;48.02;102684.22;4927982;29;19919;-82
2021/07/17 04:03:03;;;;;;;;;;;;;;;23.66;48.62;102671.13;4927113;29;19915;-81
2021/07/17 04:05:28;;;;;;;;;;;;;;;23.76;48.47;102674.94;4928411;29;19982;-83
2021/07/17 04:07:54;;;;;;;;;;;;;;;23.63;48.52;102676.88;4928919;29;20278;-82
2021/07/17 04:10:19;;;;;;;;;;;;;;;23.85;48.18;102681.69;4944649;29;19919;-82
2021/07/17 04:12:44;;;;;;;;;;;;;;;23.85;48.24;102681.69;4927441;29;19919;-83
2021/07/17 04:15:10;;;;;;;;;;;;;;;23.84;48.37;102682.66;4944069;29;19919;-82
2021/07/17 04:17:35;;;;;;;;;;;;;;;23.96;47.98;102691.94;4944851;29;19954;-81
2021/07/17 04:20:00;;;;;;;;;;;;;;;24.08;47.70;102681.81;4928584;29;19946;-82
2021/07/17 04:22:25;;;;;;;;;;;;;;;24.12;47.53;102691.66;4945918;29;19979;-80
2021/07/17 04:24:51;;;;;;;;;;;;;;;24.16;47.67;102685.78;4928526;29;19923;-81
2021/07/17 04:27:16;;;;;;;;;;;;;;;24.18;47.35;102685.66;4944110;29;19923;-81
2021/07/17 04:29:42;;;;;;;;;;;;;;;24.20;47.53;102686.41;4926995;29;20009;-82
2021/07/17 04:32:07;;;;;;;;;;;;;;;24.13;47.73;102683.25;4927702;29;19914;-80
2021/07/17 04:34:35;;;;;;;;;;;;;;;24.51;47.21;102693.22;4944615;29;19919;-81
2021/07/17 04:37:00;;;;;;;;;;;;;;;24.39;47.59;102692.28;4930360;29;19919;-80
2021/07/17 04:39:25;;;;;;;;;;;;;;;24.52;47.67;102688.59;4945227;29;19934;-82
2021/07/17 04:41:51;;;;;;;;;;;;;;;24.84;47.33;102701.81;4928547;29;19919;-79
2021/07/17 04:44:16;;;;;;;;;;;;;;;25.31;46.34;102699.03;4946798;29;19934;-79
2021/07/17 04:46:41;;;;;;;;;;;;;;;25.53;45.08;102704.59;4946009;29;19930;-81
2021/07/17 04:49:07;;;;;;;;;;;;;;;25.85;44.23;102701.03;4945728;29;19925;-83
2021/07/17 04:51:32;;;;;;;;;;;;;;;25.82;44.37;102701.28;4928897;29;19966;-81
2021/07/17 04:53:57;;;;;;;;;;;;;;;25.93;43.79;102706.81;4927993;29;20384;-81
2021/07/17 04:56:22;;;;;;;;;;;;;;;26.51;43.07;102705.63;4945792;29;19923;-82
2021/07/17 04:58:48;;;;;;;;;;;;;;;26.69;42.47;102703.19;4927159;29;19927;-81
2021/07/17 05:01:13;;;;;;;;;;;;;;;27.14;41.65;102702.94;4945525;29;19919;-81
2021/07/17 05:03:38;;;;;;;;;;;;;;;26.92;42.25;102709.53;4927091;29;19926;-83
2021/07/17 05:06:04;;;;;;;;;;;;;;;27.39;41.42;102703.56;4942595;29;19918;-79
2021/07/17 05:08:29;;;;;;;;;;;;;;;26.97;42.13;102717.44;4925747;29;19918;-82
2021/07/17 05:10:54;;;;;;;;;;;;;;;27.16;41.73;102705.56;4942427;29;19978;-82
2021/07/17 05:13:20;;;;;;;;;;;;;;;27.00;42.30;102706.94;4943452;29;20661;-83
2021/07/17 05:15:45;;;;;;;;;;;;;;;27.18;42.58;102707.19;4943579;29;19961;-83
2021/07/17 05:18:11;;;;;;;;;;;;;;;27.64;41.87;102704.09;4947164;29;19957;-83
2021/07/17 05:20:37;;;;;;;;;;;;;;;27.18;42.69;102704.41;4949222;29;19923;-81
2021/07/17 05:23:02;;;;;;;;;;;;;;;26.97;43.53;102711.91;4927468;29;19985;-82
2021/07/17 05:25:27;;;;;;;;;;;;;;;27.70;41.84;102709.94;4926920;29;19918;-82
2021/07/17 05:27:53;;;;;;;;;;;;;;;27.84;41.31;102705.91;4943083;29;19989;-83
2021/07/17 05:30:18;;;;;;;;;;;;;;;27.70;42.02;102709.09;4942536;29;19965;-83
2021/07/17 05:32:43;;;;;;;;;;;;;;;27.08;43.61;102714.59;4926137;29;19926;-83
2021/07/17 05:35:09;;;;;;;;;;;;;;;27.69;42.44;102707.31;4943127;29;19946;-81
2021/07/17 05:37:34;;;;;;;;;;;;;;;28.20;40.96;102709.13;4942805;29;19926;-81
2021/07/17 05:39:59;;;;;;;;;;;;;;;28.00;41.96;102704.53;4926619;29;19919;-84
2021/07/17 05:42:24;;;;;;;;;;;;;;;28.45;40.64;102701.22;4925793;29;20341;-84
2021/07/17 05:44:50;;;;;;;;;;;;;;;28.25;41.28;102708.69;4940983;29;19985;-81
2021/07/17 05:47:15;;;;;;;;;;;;;;;28.62;40.28;102717.19;4941548;29;19925;-78
2021/07/17 05:49:41;;;;;;;;;;;;;;;28.60;40.48;102713.69;4942910;29;19921;-84
2021/07/17 05:52:06;;;;;;;;;;;;;;;28.53;40.94;102708.84;4925165;29;19929;-84
2021/07/17 05:54:31;;;;;;;;;;;;;;;28.43;41.28;102712.50;4924964;29;19923;-82
2021/07/17 05:56:56;;;;;;;;;;;;;;;27.70;42.68;102720.19;4941573;29;20368;-82
2021/07/17 05:59:22;;;;;;;;;;;;;;;27.79;42.96;102711.00;4924189;29;19943;-84
2021/07/17 06:01:47;;;;;;;;;;;;;;;27.57;43.31;102714.91;4924091;29;19923;-82
2021/07/17 06:04:12;;;;;;;;;;;;;;;28.23;41.80;102717.19;4923584;29;20009;-84
2021/07/17 06:06:37;;;;;;;;;;;;;;;28.46;41.57;102714.13;4924245;29;20357;-83
2021/07/17 06:09:02;;;;;;;;;;;;;;;28.41;41.54;102722.00;4942034;29;19919;-82
2021/07/17 06:11:29;;;;;;;;;;;;;;;28.57;41.68;102713.09;4925453;29;19918;-81
2021/07/17 06:13:54;;;;;;;;;;;;;;;28.02;43.17;102719.16;4942437;29;19915;-81
2021/07/17 06:16:19;;;;;;;;;;;;;;;28.11;42.45;102729.44;4942280;29;19974;-81
2021/07/17 06:18:44;;;;;;;;;;;;;;;27.88;43.19;102737.09;4942285;29;19923;-80
2021/07/17 06:21:10;;;;;;;;;;;;;;;27.67;43.28;102737.16;4924920;29;19954;-85
2021/07/17 06:23:35;;;;;;;;;;;;;;;27.57;44.11;102735.22;4925006;29;19923;-81
2021/07/17 06:26:00;;;;;;;;;;;;;;;27.05;45.60;102739.88;4923911;29;20317;-81
2021/07/17 06:28:26;;;;;;;;;;;;;;;26.70;46.43;102739.16;4941379;29;19931;-83
2021/07/17 06:30:51;;;;;;;;;;;;;;;27.43;44.76;102730.03;4923757;29;19919;-82
2021/07/17 06:33:16;;;;;;;;;;;;;;;27.14;45.19;102735.41;4939516;29;20053;-83
2021/07/17 06:35:41;;;;;;;;;;;;;;;27.40;44.76;102735.88;4923939;29;20002;-82
2021/07/17 06:38:07;;;;;;;;;;;;;;;27.82;43.85;102744.09;4923096;29;19919;-80
2021/07/17 06:40:32;;;;;;;;;;;;;;;28.13;42.95;102737.63;4923199;29;19926;-80
2021/07/17 06:42:57;;;;;;;;;;;;;;;27.69;43.90;102741.59;4923425;29;19919;-83
2021/07/17 06:45:22;;;;;;;;;;;;;;;28.13;43.48;102745.97;4940080;29;19927;-78
2021/07/17 06:47:48;;;;;;;;;;;;;;;28.28;42.91;102748.22;4940576;29;19925;-83
2021/07/17 06:50:14;;;;;;;;;;;;;;;28.42;42.76;102748.84;4941439;29;20026;-82
2021/07/17 06:52:40;;;;;;;;;;;;;;;27.92;44.31;102756.16;4927383;29;19922;-80
2021/07/17 06:55:07;;;;;;;;;;;;;;;28.24;43.10;102760.66;4924499;29;19923;-80
2021/07/17 06:57:34;;;;;;;;;;;;;;;27.58;44.74;102763.91;4927977;29;19927;-80
2021/07/17 06:59:59;;;;;;;;;;;;;;;27.93;42.94;102757.03;4941910;29;19925;-82
2021/07/17 07:02:25;;;;;;;;;;;;;;;28.16;43.02;102754.03;4942924;29;20285;-86
2021/07/17 07:04:50;;;;;;;;;;;;;;;28.47;42.31;102760.41;4947320;29;20040;-81
2021/07/17 07:07:15;;;;;;;;;;;;;;;28.66;41.76;102747.56;4932251;29;19973;-81
2021/07/17 07:09:40;;;;;;;;;;;;;;;27.90;43.57;102760.09;4933199;29;19927;-82
2021/07/17 07:12:07;;;;;;;;;;;;;;;28.71;41.80;102759.16;4945875;29;19962;-82
2021/07/17 07:14:32;;;;;;;;;;;;;;;29.00;40.88;102759.13;4941313;29;19919;-84
2021/07/17 07:16:58;;;;;;;;;;;;;;;29.58;39.75;102771.22;4924363;29;20388;-82
2021/07/17 07:19:23;;;;;;;;;;;;;;;29.43;39.70;102760.53;4942206;29;19923;-84
2021/07/17 07:21:49;;;;;;;;;;;;;;;29.59;39.45;102770.16;4925808;29;19919;-83
2021/07/17 07:24:14;;;;;;;;;;;;;;;29.61;39.81;102774.56;4942061;29;19966;-79
2021/07/17 07:26:40;;;;;;;;;;;;;;;29.59;39.22;102770.16;4941429;29;19927;-84
2021/07/17 07:29:05;;;;;;;;;;;;;;;28.83;40.75;102769.09;4940920;29;19919;-85
2021/07/17 07:31:31;;;;;;;;;;;;;;;28.73;39.73;102776.56;4941076;29;19919;-85
2021/07/17 07:33:56;;;;;;;;;;;;;;;29.30;38.70;102772.00;4941054;29;19923;-84
2021/07/17 07:36:22;;;;;;;;;;;;;;;28.57;41.13;102778.00;4923592;29;19919;-83
2021/07/17 07:38:47;;;;;;;;;;;;;;;29.01;40.57;102793.44;4923534;29;19919;-84
2021/07/17 07:41:12;;;;;;;;;;;;;;;29.65;38.45;102781.63;4940151;29;20270;-82
2021/07/17 07:43:37;;;;;;;;;;;;;;;29.64;39.28;102781.75;4940259;29;20369;-84
2021/07/17 07:46:03;;;;;;;;;;;;;;;29.28;39.43;102787.16;4940315;29;19966;-82
2021/07/17 07:48:29;;;;;;;;;;;;;;;30.05;37.90;102783.22;4916864;29;20328;-82
2021/07/17 07:50:55;;;;;;;;;;;;;;;29.83;38.43;102773.34;4928214;29;19966;-84
2021/07/17 07:53:21;;;;;;;;;;;;;;;29.86;37.72;102772.13;4904326;29;20338;-84
2021/07/17 07:55:46;;;;;;;;;;;;;;;29.69;38.23;102776.59;4904057;29;19927;-82
2021/07/17 07:58:11;;;;;;;;;;;;;;;29.75;37.81;102770.41;4920722;29;19924;-84
2021/07/17 08:00:36;;;;;;;;;;;;;;;28.98;39.86;102770.41;4903411;29;19915;-84
2021/07/17 08:03:02;;;;;;;;;;;;;;;30.14;37.51;102769.38;4920153;29;19961;-82
2021/07/17 08:05:27;;;;;;;;;;;;;;;29.85;38.38;102771.28;4921360;29;19919;-82
2021/07/17 08:07:52;;;;;;;;;;;;;;;30.00;37.29;102771.66;4915137;29;19919;-86
2021/07/17 08:10:18;;;;;;;;;;;;;;;30.37;36.76;102769.81;4924006;29;19919;-81
2021/07/17 08:12:43;;;;;;;;;;;;;;;30.70;36.04;102771.03;4903379;29;19915;-85
2021/07/17 08:15:08;;;;;;;;;;;;;;;30.20;36.30;102766.81;4903500;29;20014;-83
2021/07/17 08:17:34;;;;;;;;;;;;;;;31.13;34.99;102771.25;4904407;29;19946;-84
2021/07/17 08:19:59;;;;;;;;;;;;;;;31.03;35.02;102773.31;4904563;29;19919;-81
2021/07/17 08:22:24;;;;;;;;;;;;;;;31.24;34.57;102773.81;4904198;29;20388;-83
2021/07/17 08:24:49;;;;;;;;;;;;;;;31.21;34.89;102776.94;4927980;29;19923;-84
2021/07/17 08:27:15;;;;;;;;;;;;;;;31.10;35.11;102778.09;4941926;29;19933;-83
2021/07/17 08:29:40;;;;;;;;;;;;;;;30.37;36.36;102775.38;4939934;29;20489;-83
2021/07/17 08:32:05;;;;;;;;;;;;;;;31.08;35.36;102777.34;4921970;29;19985;-83
2021/07/17 08:34:31;;;;;;;;;;;;;;;30.07;36.98;102771.88;4922665;29;20013;-81
2021/07/17 08:36:56;;;;;;;;;;;;;;;31.22;34.22;102786.19;4938998;29;19929;-83
2021/07/17 08:39:21;;;;;;;;;;;;;;;31.69;33.62;102785.84;4938379;29;19956;-84
2021/07/17 08:41:48;;;;;;;;;;;;;;;32.16;32.28;102778.94;4921801;29;19962;-82
2021/07/17 08:44:14;;;;;;;;;;;;;;;31.36;33.24;102782.81;4921633;29;19919;-82
2021/07/17 08:46:40;;;;;;;;;;;;;;;31.00;32.91;102785.69;4940751;29;19923;-84
2021/07/17 08:49:05;;;;;;;;;;;;;;;31.12;32.83;102786.31;4925595;29;19923;-83
2021/07/17 08:51:31;;;;;;;;;;;;;;;31.27;32.88;102781.88;4940574;29;19929;-83
2021/07/17 08:53:56;;;;;;;;;;;;;;;31.29;32.27;102781.72;4941655;29;20562;-82
2021/07/17 08:56:21;;;;;;;;;;;;;;;31.53;32.61;102774.53;4920970;29;19923;-83
2021/07/17 08:58:48;;;;;;;;;;;;;;;30.31;34.25;102774.09;4924788;29;19923;-84
2021/07/17 09:01:14;;;;;;;;;;;;;;;31.39;33.06;102776.03;4924510;29;19966;-82
2021/07/17 09:03:40;;;;;;;;;;;;;;;31.34;33.29;102775.63;4920673;29;19966;-83
2021/07/17 09:06:05;;;;;;;;;;;;;;;31.40;33.14;102777.75;4920888;29;20566;-86
2021/07/17 09:08:30;;;;;;;;;;;;;;;32.31;31.02;102770.75;4938166;29;19989;-82
2021/07/17 09:10:58;;;;;;;;;;;;;;;32.58;31.29;102766.78;4921063;29;19919;-85
2021/07/17 09:13:24;;;;;;;;;;;;;;;32.54;30.84;102767.31;4921596;29;19923;-82
2021/07/17 09:15:54;;;;;;;;;;;;;;;32.36;30.80;102773.91;4936111;29;19919;-84
2021/07/17 09:18:23;;;;;;;;;;;;;;;32.12;30.92;102769.97;4922577;29;19958;-83
2021/07/17 09:20:59;;;;;;;;;;;;;;;32.98;29.28;102772.59;4939982;29;19926;-85
2021/07/17 09:23:25;;;;;;;;;;;;;;;32.14;30.49;102779.09;4922519;29;19934;-84
2021/07/17 09:25:50;;;;;;;;;;;;;;;31.85;31.10;102770.19;4920959;29;19945;-82
2021/07/17 09:28:28;;;;;;;;;;;;;;;32.13;30.36;102777.34;4917208;29;20393;-86
2021/07/17 09:30:57;;;;;;;;;;;;;;;32.66;29.95;102763.13;4938032;29;19919;-84
2021/07/17 09:33:23;;;;;;;;;;;;;;;31.19;31.95;102769.75;4919344;29;19973;-83
2021/07/17 09:35:49;;;;;;;;;;;;;;;31.95;31.21;102771.81;4938742;29;20392;-86
2021/07/17 09:38:18;;;;;;;;;;;;;;;31.23;32.29;102771.19;4938758;29;20282;-83
2021/07/17 09:40:44;;;;;;;;;;;;;;;32.97;30.07;102765.25;4922103;29;20013;-86
2021/07/17 09:43:10;;;;;;;;;;;;;;;33.08;29.47;102756.50;4938874;29;20025;-85
2021/07/17 09:45:36;;;;;;;;;;;;;;;33.13;29.25;102755.97;4920953;29;20709;-82
2021/07/17 09:48:20;;;;;;;;;;;;;;;32.88;29.31;102763.50;4921122;29;19918;-84
2021/07/17 09:50:45;;;;;;;;;;;;;;;33.47;28.86;102757.66;4939163;29;19950;-85
2021/07/17 09:53:10;;;;;;;;;;;;;;;33.23;28.35;102752.97;4921556;29;19982;-83
2021/07/17 09:55:35;;;;;;;;;;;;;;;31.18;31.23;102756.81;4920740;29;19930;-83
2021/07/17 09:58:08;;;;;;;;;;;;;;;32.20;29.59;102751.44;4938653;29;20025;-82
2021/07/17 10:00:33;;;;;;;;;;;;;;;32.50;29.34;102748.00;4921019;29;20253;-82
2021/07/17 10:03:02;;;;;;;;;;;;;;;33.03;28.93;102748.59;4920584;29;19925;-88
2021/07/17 10:05:38;;;;;;;;;;;;;;;33.50;27.40;102752.59;4937169;29;19918;-83
2021/07/17 10:08:13;;;;;;;;;;;;;;;32.78;28.80;102756.13;4938704;29;19919;-85
2021/07/17 10:10:38;;;;;;;;;;;;;;;31.52;30.66;102764.38;4921952;29;19919;-84
2021/07/17 10:13:03;;;;;;;;;;;;;;;32.97;28.81;102754.88;4921966;29;20440;-81
2021/07/17 10:15:32;;;;;;;;;;;;;;;32.68;28.10;102761.03;4923969;29;19974;-82
2021/07/17 10:18:23;;;;;;;;;;;;;;;33.30;28.13;102754.88;4919960;29;19923;-81
2021/07/17 10:20:55;;;;;;;;;;;;;;;33.62;27.84;102755.00;4936232;29;19923;-81
2021/07/17 10:23:20;;;;;;;;;;;;;;;34.23;26.40;102752.47;4918623;29;19918;-81
2021/07/17 10:25:46;;;;;;;;;;;;;;;33.93;26.38;102755.09;4918482;29;19927;-82
2021/07/17 10:28:11;;;;;;;;;;;;;;;33.10;27.91;102757.16;4936452;29;19922;-84
2021/07/17 10:30:37;;;;;;;;;;;;;;;33.55;27.46;102758.53;4917956;29;19923;-81
2021/07/17 10:33:02;;;;;;;;;;;;;;;32.10;28.86;102762.78;4919210;29;19922;-79
2021/07/17 10:35:28;;;;;;;;;;;;;;;34.00;26.16;102758.91;4919838;29;19919;-83
2021/07/17 10:37:56;;;;;;;;;;;;;;;34.34;25.66;102751.22;4919922;29;19919;-82
2021/07/17 10:40:22;;;;;;;;;;;;;;;33.32;26.59;102746.28;4919278;29;19926;-83
2021/07/17 10:42:51;;;;;;;;;;;;;;;33.94;26.63;102755.94;4921569;29;20021;-83
2021/07/17 10:45:36;;;;;;;;;;;;;;;34.56;25.51;102743.84;4924692;29;20025;-81
2021/07/17 10:48:02;;;;;;;;;;;;;;;34.99;25.56;102746.19;4926349;29;19946;-79
2021/07/17 10:50:32;;;;;;;;;;;;;;;34.04;25.84;102751.84;4924520;29;19915;-78
2021/07/17 10:52:58;;;;;;;;;;;;;;;33.73;25.98;102751.84;4936882;29;19919;-81
2021/07/17 10:55:24;;;;;;;;;;;;;;;33.79;26.37;102745.50;4937835;29;19923;-84
2021/07/17 10:57:49;;;;;;;;;;;;;;;35.27;25.29;102750.13;4920592;29;19923;-86
2021/07/17 11:00:33;;;;;;;;;;;;;;;35.30;25.26;102752.56;4921404;29;19919;-82
2021/07/17 11:03:15;;;;;;;;;;;;;;;34.86;24.60;102755.25;4919591;29;19915;-83
2021/07/17 11:05:40;;;;;;;;;;;;;;;35.25;24.82;102748.53;4918678;29;20292;-82
2021/07/17 11:08:05;;;;;;;;;;;;;;;35.84;24.06;102747.72;4919365;29;20377;-80
2021/07/17 11:10:41;;;;;;;;;;;;;;;35.39;24.95;102746.84;4935180;29;19942;-82
2021/07/17 11:13:07;;;;;;;;;;;;;;;35.48;24.68;102732.50;4915924;29;19926;-80
2021/07/17 11:15:33;;;;;;;;;;;;;;;35.17;24.62;102735.44;4935458;29;19970;-82
2021/07/17 11:17:58;;;;;;;;;;;;;;;35.50;24.31;102743.56;4917897;29;19933;-83
2021/07/17 11:20:34;;;;;;;;;;;;;;;35.96;23.79;102734.88;4918524;29;20301;-83
2021/07/17 11:23:01;;;;;;;;;;;;;;;35.16;23.90;102733.69;4932667;29;19928;-77
2021/07/17 11:25:26;;;;;;;;;;;;;;;34.91;24.85;102741.50;4917513;29;19923;-81
2021/07/17 11:27:51;;;;;;;;;;;;;;;34.89;24.23;102738.88;4934588;29;20420;-80
2021/07/17 11:30:18;;;;;;;;;;;;;;;34.50;25.30;102738.97;4936107;29;19930;-78
2021/07/17 11:33:02;;;;;;;;;;;;;;;35.78;23.69;102737.25;4936154;29;19926;-82
2021/07/17 11:35:27;;;;;;;;;;;;;;;36.25;23.28;102737.84;4918904;29;20005;-82
2021/07/17 11:37:53;;;;;;;;;;;;;;;35.90;23.56;102735.69;4937134;29;19969;-81
2021/07/17 11:40:18;;;;;;;;;;;;;;;36.52;23.22;102736.22;4936339;29;19975;-79
2021/07/17 11:42:43;;;;;;;;;;;;;;;36.23;23.57;102735.22;4935519;29;20373;-82
2021/07/17 11:45:08;;;;;;;;;;;;;;;36.04;23.89;102716.13;4936349;29;19970;-81
2021/07/17 11:47:34;;;;;;;;;;;;;;;35.58;24.25;102732.19;4919629;29;19923;-82
2021/07/17 11:50:00;;;;;;;;;;;;;;;35.19;24.65;102726.81;4918992;29;19923;-82
2021/07/17 11:52:29;;;;;;;;;;;;;;;35.33;24.96;102726.00;4939698;29;19922;-85
2021/07/17 11:54:54;;;;;;;;;;;;;;;35.82;24.79;102722.59;4922980;29;19923;-82
2021/07/17 11:57:21;;;;;;;;;;;;;;;35.83;27.05;102717.84;4922929;29;19946;-83
2021/07/17 11:59:48;;;;;;;;;;;;;;;36.35;26.78;102719.56;4941839;29;19919;-81
2021/07/17 12:02:14;;;;;;;;;;;;;;;36.73;25.86;102718.41;4925418;29;19974;-83
2021/07/17 12:04:47;;;;;;;;;;;;;;;36.01;27.42;102712.66;4925205;29;19926;-85
2021/07/17 12:07:14;;;;;;;;;;;;;;;35.34;27.61;102715.59;4922625;29;19919;-82
2021/07/17 12:09:40;;;;;;;;;;;;;;;35.71;26.63;102713.72;4921925;29;20321;-83
2021/07/17 12:12:16;;;;;;;;;;;;;;;34.69;28.95;102726.34;4939181;29;19918;-82
2021/07/17 12:14:42;;;;;;;;;;;;;;;35.54;27.62;102704.63;4923170;29;19926;-82
2021/07/17 12:17:08;;;;;;;;;;;;;;;35.24;28.03;102708.28;4940507;29;19919;-82
2021/07/17 12:19:33;;;;;;;;;;;;;;;35.16;28.21;102711.16;4924863;29;20325;-85
2021/07/17 12:21:58;;;;;;;;;;;;;;;35.75;26.73;102703.81;4925306;29;19938;-85
2021/07/17 12:24:24;;;;;;;;;;;;;;;34.88;28.01;102703.38;4942477;29;19974;-87
2021/07/17 12:26:50;;;;;;;;;;;;;;;35.14;27.74;102708.56;4926274;29;19974;-90
2021/07/17 12:29:15;;;;;;;;;;;;;;;35.84;27.28;102705.50;4925179;29;19966;-87